20070308

lluvia

Hoy cayó bastante agua:


10 AM (15) Mar 08 71 (22) 69 (21) 29.65 (1004) N 13 rain with thunder
9 AM (14) Mar 08 69 (21) 69 (21) 29.71 (1006) NNW 6 rain with thunder
8 AM (13) Mar 08 71 (22) 69 (21) 29.71 (1006) rain with thunder
7 AM (12) Mar 08 71 (22) 71 (22) 29.71 (1006) rain with thunder
6 AM (11) Mar 08 71 (22) 71 (22) 29.71 (1006) light rain


El clima actual es:

SABE 081700Z 34006KT 6000 -RA BKN011 OVC050 22/20 Q1003


Obviamente que, mientras estaba llegando al trabajo, me agarró la lluvia y casi quede hecho sopa (suerte que solo era -RA).
Publicar un comentario